sensor_id;sensor_type;location;lat;lon;timestamp;temperature;humidity
66608;DHT22;53462;39.616;8.824;2023-04-03T00:02:09;9.30;99.90
66608;DHT22;53462;39.616;8.824;2023-04-03T00:04:35;9.20;99.90
66608;DHT22;53462;39.616;8.824;2023-04-03T00:07:01;9.10;99.90
66608;DHT22;53462;39.616;8.824;2023-04-03T00:09:27;9.10;99.90
66608;DHT22;53462;39.616;8.824;2023-04-03T00:11:53;9.00;99.90
66608;DHT22;53462;39.616;8.824;2023-04-03T00:14:19;9.00;99.90
66608;DHT22;53462;39.616;8.824;2023-04-03T00:16:45;8.90;99.90
66608;DHT22;53462;39.616;8.824;2023-04-03T00:19:11;8.80;99.90
66608;DHT22;53462;39.616;8.824;2023-04-03T00:21:38;8.80;99.90
66608;DHT22;53462;39.616;8.824;2023-04-03T00:24:04;8.70;99.90
66608;DHT22;53462;39.616;8.824;2023-04-03T00:26:30;8.70;99.90
66608;DHT22;53462;39.616;8.824;2023-04-03T00:28:56;8.70;99.90
66608;DHT22;53462;39.616;8.824;2023-04-03T00:31:22;8.70;99.90
66608;DHT22;53462;39.616;8.824;2023-04-03T00:33:48;8.70;99.90
66608;DHT22;53462;39.616;8.824;2023-04-03T00:36:16;8.50;99.90
66608;DHT22;53462;39.616;8.824;2023-04-03T00:38:41;8.50;99.90
66608;DHT22;53462;39.616;8.824;2023-04-03T00:41:08;8.60;99.90
66608;DHT22;53462;39.616;8.824;2023-04-03T00:43:34;8.70;99.90
66608;DHT22;53462;39.616;8.824;2023-04-03T00:45:59;8.70;99.90
66608;DHT22;53462;39.616;8.824;2023-04-03T00:48:30;8.80;99.90
66608;DHT22;53462;39.616;8.824;2023-04-03T00:50:58;8.70;99.90
66608;DHT22;53462;39.616;8.824;2023-04-03T00:53:37;8.70;99.90
66608;DHT22;53462;39.616;8.824;2023-04-03T00:56:07;8.60;99.90
66608;DHT22;53462;39.616;8.824;2023-04-03T00:58:41;8.60;99.90
66608;DHT22;53462;39.616;8.824;2023-04-03T01:01:12;8.60;99.90
66608;DHT22;53462;39.616;8.824;2023-04-03T01:03:41;8.60;99.90
66608;DHT22;53462;39.616;8.824;2023-04-03T01:06:07;8.60;99.90
66608;DHT22;53462;39.616;8.824;2023-04-03T01:08:33;8.50;99.90
66608;DHT22;53462;39.616;8.824;2023-04-03T01:10:59;8.60;99.90
66608;DHT22;53462;39.616;8.824;2023-04-03T01:13:30;8.50;99.90
66608;DHT22;53462;39.616;8.824;2023-04-03T01:15:56;8.40;99.90
66608;DHT22;53462;39.616;8.824;2023-04-03T01:18:26;8.40;99.90
66608;DHT22;53462;39.616;8.824;2023-04-03T01:26:27;8.50;99.90
66608;DHT22;53462;39.616;8.824;2023-04-03T01:28:54;8.60;99.90
66608;DHT22;53462;39.616;8.824;2023-04-03T01:33:58;8.40;99.90
66608;DHT22;53462;39.616;8.824;2023-04-03T01:36:27;8.50;99.90
66608;DHT22;53462;39.616;8.824;2023-04-03T01:38:55;8.40;99.90
66608;DHT22;53462;39.616;8.824;2023-04-03T01:41:22;8.30;99.90
66608;DHT22;53462;39.616;8.824;2023-04-03T01:43:50;8.30;99.90
66608;DHT22;53462;39.616;8.824;2023-04-03T01:46:17;8.30;99.90
66608;DHT22;53462;39.616;8.824;2023-04-03T01:48:43;8.30;99.90
66608;DHT22;53462;39.616;8.824;2023-04-03T01:51:10;8.30;99.90
66608;DHT22;53462;39.616;8.824;2023-04-03T01:53:36;8.20;99.90
66608;DHT22;53462;39.616;8.824;2023-04-03T01:56:02;8.10;99.90
66608;DHT22;53462;39.616;8.824;2023-04-03T01:58:30;8.20;99.90
66608;DHT22;53462;39.616;8.824;2023-04-03T02:00:56;8.20;99.90
66608;DHT22;53462;39.616;8.824;2023-04-03T02:03:22;8.30;99.90
66608;DHT22;53462;39.616;8.824;2023-04-03T02:05:49;8.30;99.90
66608;DHT22;53462;39.616;8.824;2023-04-03T02:08:16;8.20;99.90
66608;DHT22;53462;39.616;8.824;2023-04-03T02:10:44;8.10;99.90
66608;DHT22;53462;39.616;8.824;2023-04-03T02:13:11;8.20;99.90
66608;DHT22;53462;39.616;8.824;2023-04-03T02:15:40;8.20;99.90
66608;DHT22;53462;39.616;8.824;2023-04-03T02:18:06;8.10;99.90
66608;DHT22;53462;39.616;8.824;2023-04-03T02:20:33;8.10;99.90
66608;DHT22;53462;39.616;8.824;2023-04-03T02:23:00;8.20;99.90
66608;DHT22;53462;39.616;8.824;2023-04-03T02:25:26;8.20;99.90
66608;DHT22;53462;39.616;8.824;2023-04-03T02:27:52;8.20;99.90
66608;DHT22;53462;39.616;8.824;2023-04-03T02:30:18;8.30;99.90
66608;DHT22;53462;39.616;8.824;2023-04-03T02:32:44;8.40;99.90
66608;DHT22;53462;39.616;8.824;2023-04-03T02:35:11;8.30;99.90
66608;DHT22;53462;39.616;8.824;2023-04-03T02:37:38;8.30;99.90
66608;DHT22;53462;39.616;8.824;2023-04-03T02:40:05;8.40;99.90
66608;DHT22;53462;39.616;8.824;2023-04-03T02:42:32;8.40;99.90
66608;DHT22;53462;39.616;8.824;2023-04-03T02:44:58;8.50;99.90
66608;DHT22;53462;39.616;8.824;2023-04-03T02:47:27;8.50;99.90
66608;DHT22;53462;39.616;8.824;2023-04-03T02:49:53;8.40;99.90
66608;DHT22;53462;39.616;8.824;2023-04-03T02:52:20;8.40;99.90
66608;DHT22;53462;39.616;8.824;2023-04-03T02:54:47;8.30;99.90
66608;DHT22;53462;39.616;8.824;2023-04-03T02:57:13;8.20;99.90
66608;DHT22;53462;39.616;8.824;2023-04-03T02:59:39;8.20;99.90
66608;DHT22;53462;39.616;8.824;2023-04-03T03:02:08;8.20;99.90
66608;DHT22;53462;39.616;8.824;2023-04-03T03:04:34;8.30;99.90
66608;DHT22;53462;39.616;8.824;2023-04-03T03:07:00;8.20;99.90
66608;DHT22;53462;39.616;8.824;2023-04-03T03:09:28;8.20;99.90
66608;DHT22;53462;39.616;8.824;2023-04-03T03:11:56;8.30;99.90
66608;DHT22;53462;39.616;8.824;2023-04-03T03:14:22;8.30;99.90
66608;DHT22;53462;39.616;8.824;2023-04-03T03:16:48;8.40;99.90
66608;DHT22;53462;39.616;8.824;2023-04-03T03:19:15;8.40;99.90
66608;DHT22;53462;39.616;8.824;2023-04-03T03:21:41;8.40;99.90
66608;DHT22;53462;39.616;8.824;2023-04-03T03:24:07;8.40;99.90
66608;DHT22;53462;39.616;8.824;2023-04-03T03:26:33;8.40;99.90
66608;DHT22;53462;39.616;8.824;2023-04-03T03:29:01;8.40;99.90
66608;DHT22;53462;39.616;8.824;2023-04-03T03:31:28;8.40;99.90
66608;DHT22;53462;39.616;8.824;2023-04-03T03:33:54;8.40;99.90
66608;DHT22;53462;39.616;8.824;2023-04-03T03:36:21;8.40;99.90
66608;DHT22;53462;39.616;8.824;2023-04-03T03:38:47;8.30;99.90
66608;DHT22;53462;39.616;8.824;2023-04-03T03:41:13;8.30;99.90
66608;DHT22;53462;39.616;8.824;2023-04-03T03:43:41;8.30;99.90
66608;DHT22;53462;39.616;8.824;2023-04-03T03:46:07;8.30;99.90
66608;DHT22;53462;39.616;8.824;2023-04-03T03:48:33;8.40;99.90
66608;DHT22;53462;39.616;8.824;2023-04-03T03:51:00;8.40;99.90
66608;DHT22;53462;39.616;8.824;2023-04-03T03:53:30;8.40;99.90
66608;DHT22;53462;39.616;8.824;2023-04-03T03:56:00;8.30;99.90
66608;DHT22;53462;39.616;8.824;2023-04-03T03:58:28;8.30;99.90
66608;DHT22;53462;39.616;8.824;2023-04-03T04:00:55;8.30;99.90
66608;DHT22;53462;39.616;8.824;2023-04-03T04:03:21;8.40;99.90
66608;DHT22;53462;39.616;8.824;2023-04-03T04:05:48;8.40;99.90
66608;DHT22;53462;39.616;8.824;2023-04-03T04:08:14;8.30;99.90
66608;DHT22;53462;39.616;8.824;2023-04-03T04:10:41;8.20;99.90
66608;DHT22;53462;39.616;8.824;2023-04-03T04:13:08;8.20;99.90
66608;DHT22;53462;39.616;8.824;2023-04-03T04:15:33;8.10;99.90
66608;DHT22;53462;39.616;8.824;2023-04-03T04:18:00;8.00;99.90
66608;DHT22;53462;39.616;8.824;2023-04-03T04:20:26;8.00;99.90
66608;DHT22;53462;39.616;8.824;2023-04-03T04:22:53;7.90;99.90
66608;DHT22;53462;39.616;8.824;2023-04-03T04:25:19;7.90;99.90
66608;DHT22;53462;39.616;8.824;2023-04-03T04:27:46;7.90;99.90
66608;DHT22;53462;39.616;8.824;2023-04-03T04:30:14;7.90;99.90
66608;DHT22;53462;39.616;8.824;2023-04-03T04:32:41;7.80;99.90
66608;DHT22;53462;39.616;8.824;2023-04-03T04:35:08;7.70;99.90
66608;DHT22;53462;39.616;8.824;2023-04-03T04:37:38;7.70;99.90
66608;DHT22;53462;39.616;8.824;2023-04-03T04:40:05;7.70;99.90
66608;DHT22;53462;39.616;8.824;2023-04-03T04:42:31;7.80;99.90
66608;DHT22;53462;39.616;8.824;2023-04-03T04:44:57;8.00;99.90
66608;DHT22;53462;39.616;8.824;2023-04-03T04:47:23;8.10;99.90
66608;DHT22;53462;39.616;8.824;2023-04-03T04:49:50;8.20;99.90
66608;DHT22;53462;39.616;8.824;2023-04-03T04:52:16;8.30;99.90
66608;DHT22;53462;39.616;8.824;2023-04-03T04:54:42;8.30;99.90
66608;DHT22;53462;39.616;8.824;2023-04-03T04:57:09;8.40;99.90
66608;DHT22;53462;39.616;8.824;2023-04-03T04:59:36;8.40;99.90
66608;DHT22;53462;39.616;8.824;2023-04-03T05:02:03;8.40;99.90
66608;DHT22;53462;39.616;8.824;2023-04-03T05:04:29;8.40;99.90
66608;DHT22;53462;39.616;8.824;2023-04-03T05:07:02;8.30;99.90
66608;DHT22;53462;39.616;8.824;2023-04-03T05:09:30;8.20;99.90
66608;DHT22;53462;39.616;8.824;2023-04-03T05:11:56;8.00;99.90
66608;DHT22;53462;39.616;8.824;2023-04-03T05:14:25;8.00;99.90
66608;DHT22;53462;39.616;8.824;2023-04-03T05:16:52;8.10;99.90
66608;DHT22;53462;39.616;8.824;2023-04-03T05:19:21;8.10;99.90
66608;DHT22;53462;39.616;8.824;2023-04-03T05:21:48;8.20;99.90
66608;DHT22;53462;39.616;8.824;2023-04-03T05:24:16;8.30;99.90
66608;DHT22;53462;39.616;8.824;2023-04-03T05:26:43;8.30;99.90
66608;DHT22;53462;39.616;8.824;2023-04-03T05:29:10;8.40;99.90
66608;DHT22;53462;39.616;8.824;2023-04-03T05:31:37;8.40;99.90
66608;DHT22;53462;39.616;8.824;2023-04-03T05:34:03;8.50;99.90
66608;DHT22;53462;39.616;8.824;2023-04-03T05:36:31;8.50;99.90
66608;DHT22;53462;39.616;8.824;2023-04-03T05:39:02;8.60;99.90
66608;DHT22;53462;39.616;8.824;2023-04-03T05:41:28;8.70;99.90
66608;DHT22;53462;39.616;8.824;2023-04-03T05:43:54;8.80;99.90
66608;DHT22;53462;39.616;8.824;2023-04-03T05:46:22;8.90;99.90
66608;DHT22;53462;39.616;8.824;2023-04-03T05:48:52;9.00;99.90
66608;DHT22;53462;39.616;8.824;2023-04-03T05:51:28;9.10;99.90
66608;DHT22;53462;39.616;8.824;2023-04-03T05:54:26;9.20;99.90
66608;DHT22;53462;39.616;8.824;2023-04-03T05:56:59;9.30;99.90
66608;DHT22;53462;39.616;8.824;2023-04-03T05:59:26;9.30;99.90
66608;DHT22;53462;39.616;8.824;2023-04-03T06:01:54;9.50;99.90
66608;DHT22;53462;39.616;8.824;2023-04-03T06:04:21;9.80;99.90
66608;DHT22;53462;39.616;8.824;2023-04-03T06:06:49;9.80;99.90
66608;DHT22;53462;39.616;8.824;2023-04-03T06:09:18;10.10;99.90
66608;DHT22;53462;39.616;8.824;2023-04-03T06:11:44;10.20;99.90
66608;DHT22;53462;39.616;8.824;2023-04-03T06:14:10;10.50;99.90
66608;DHT22;53462;39.616;8.824;2023-04-03T06:16:37;11.30;99.90
66608;DHT22;53462;39.616;8.824;2023-04-03T06:19:08;11.80;99.90
66608;DHT22;53462;39.616;8.824;2023-04-03T06:21:38;12.00;99.90
66608;DHT22;53462;39.616;8.824;2023-04-03T06:24:04;11.80;99.90
66608;DHT22;53462;39.616;8.824;2023-04-03T06:26:32;12.40;99.90
66608;DHT22;53462;39.616;8.824;2023-04-03T06:28:59;13.20;99.90
66608;DHT22;53462;39.616;8.824;2023-04-03T06:31:25;12.60;98.00
66608;DHT22;53462;39.616;8.824;2023-04-03T06:33:51;12.00;99.90
66608;DHT22;53462;39.616;8.824;2023-04-03T06:36:19;11.60;99.90
66608;DHT22;53462;39.616;8.824;2023-04-03T06:38:46;11.50;99.90
66608;DHT22;53462;39.616;8.824;2023-04-03T06:41:12;11.30;99.90
66608;DHT22;53462;39.616;8.824;2023-04-03T06:43:38;11.50;99.90
66608;DHT22;53462;39.616;8.824;2023-04-03T06:46:04;11.70;99.90
66608;DHT22;53462;39.616;8.824;2023-04-03T06:48:33;11.60;99.90
66608;DHT22;53462;39.616;8.824;2023-04-03T06:50:59;11.50;99.90
66608;DHT22;53462;39.616;8.824;2023-04-03T06:53:25;11.30;99.90
66608;DHT22;53462;39.616;8.824;2023-04-03T06:55:51;11.10;99.90
66608;DHT22;53462;39.616;8.824;2023-04-03T06:58:17;11.10;99.90
66608;DHT22;53462;39.616;8.824;2023-04-03T07:00:43;11.10;99.90
66608;DHT22;53462;39.616;8.824;2023-04-03T07:03:10;11.20;99.90
66608;DHT22;53462;39.616;8.824;2023-04-03T07:05:36;11.30;99.90
66608;DHT22;53462;39.616;8.824;2023-04-03T07:08:02;11.30;99.90
66608;DHT22;53462;39.616;8.824;2023-04-03T07:10:28;11.40;99.90
66608;DHT22;53462;39.616;8.824;2023-04-03T07:12:53;11.50;99.90
66608;DHT22;53462;39.616;8.824;2023-04-03T07:15:19;11.80;99.90
66608;DHT22;53462;39.616;8.824;2023-04-03T07:17:46;12.10;99.90
66608;DHT22;53462;39.616;8.824;2023-04-03T07:20:12;12.10;99.90
66608;DHT22;53462;39.616;8.824;2023-04-03T07:22:38;12.30;99.90
66608;DHT22;53462;39.616;8.824;2023-04-03T07:25:04;12.60;99.90
66608;DHT22;53462;39.616;8.824;2023-04-03T07:27:33;13.60;99.90
66608;DHT22;53462;39.616;8.824;2023-04-03T07:29:59;14.00;97.70
66608;DHT22;53462;39.616;8.824;2023-04-03T07:32:25;14.90;95.80
66608;DHT22;53462;39.616;8.824;2023-04-03T07:34:51;15.90;89.50
66608;DHT22;53462;39.616;8.824;2023-04-03T07:37:17;16.00;86.20
66608;DHT22;53462;39.616;8.824;2023-04-03T07:39:44;16.10;85.80
66608;DHT22;53462;39.616;8.824;2023-04-03T07:42:10;16.30;84.40
66608;DHT22;53462;39.616;8.824;2023-04-03T07:44:37;16.00;84.70
66608;DHT22;53462;39.616;8.824;2023-04-03T07:47:03;15.80;86.20
66608;DHT22;53462;39.616;8.824;2023-04-03T07:49:29;16.00;86.70
66608;DHT22;53462;39.616;8.824;2023-04-03T07:51:55;16.40;85.10
66608;DHT22;53462;39.616;8.824;2023-04-03T07:54:21;16.40;84.40
66608;DHT22;53462;39.616;8.824;2023-04-03T07:56:47;16.70;84.20
66608;DHT22;53462;39.616;8.824;2023-04-03T07:59:13;17.00;83.20
66608;DHT22;53462;39.616;8.824;2023-04-03T08:01:39;17.80;81.00
66608;DHT22;53462;39.616;8.824;2023-04-03T08:04:05;18.40;78.20
66608;DHT22;53462;39.616;8.824;2023-04-03T08:06:32;19.70;74.10
66608;DHT22;53462;39.616;8.824;2023-04-03T08:09:02;20.00;67.60
66608;DHT22;53462;39.616;8.824;2023-04-03T08:11:29;20.40;67.00
66608;DHT22;53462;39.616;8.824;2023-04-03T08:13:56;21.50;58.60
66608;DHT22;53462;39.616;8.824;2023-04-03T08:16:24;21.50;55.70
66608;DHT22;53462;39.616;8.824;2023-04-03T08:18:53;21.70;54.80
66608;DHT22;53462;39.616;8.824;2023-04-03T08:21:20;20.80;55.90
66608;DHT22;53462;39.616;8.824;2023-04-03T08:23:49;19.20;61.20
66608;DHT22;53462;39.616;8.824;2023-04-03T08:26:18;18.10;66.90
66608;DHT22;53462;39.616;8.824;2023-04-03T08:28:44;17.40;70.30
66608;DHT22;53462;39.616;8.824;2023-04-03T08:31:16;17.40;72.70
66608;DHT22;53462;39.616;8.824;2023-04-03T08:33:42;17.50;73.20
66608;DHT22;53462;39.616;8.824;2023-04-03T08:36:17;17.80;71.30
66608;DHT22;53462;39.616;8.824;2023-04-03T08:38:44;18.00;69.50
66608;DHT22;53462;39.616;8.824;2023-04-03T08:44:26;17.60;70.00
66608;DHT22;53462;39.616;8.824;2023-04-03T08:49:47;18.10;69.50
66608;DHT22;53462;39.616;8.824;2023-04-03T08:52:39;18.60;66.90
66608;DHT22;53462;39.616;8.824;2023-04-03T08:57:53;19.60;63.50
66608;DHT22;53462;39.616;8.824;2023-04-03T09:00:24;19.90;60.80
66608;DHT22;53462;39.616;8.824;2023-04-03T09:02:53;20.10;59.50
66608;DHT22;53462;39.616;8.824;2023-04-03T09:08:18;20.30;56.80
66608;DHT22;53462;39.616;8.824;2023-04-03T09:10:47;19.60;58.10
66608;DHT22;53462;39.616;8.824;2023-04-03T09:13:48;19.10;59.10
66608;DHT22;53462;39.616;8.824;2023-04-03T09:19:36;19.00;60.70
66608;DHT22;53462;39.616;8.824;2023-04-03T09:22:31;19.20;60.80
66608;DHT22;53462;39.616;8.824;2023-04-03T09:27:30;19.00;60.90
66608;DHT22;53462;39.616;8.824;2023-04-03T09:29:56;19.60;60.20
66608;DHT22;53462;39.616;8.824;2023-04-03T09:32:32;19.80;58.60
66608;DHT22;53462;39.616;8.824;2023-04-03T09:35:02;19.40;58.90
66608;DHT22;53462;39.616;8.824;2023-04-03T09:37:43;19.00;60.50
66608;DHT22;53462;39.616;8.824;2023-04-03T09:40:37;19.20;59.90
66608;DHT22;53462;39.616;8.824;2023-04-03T09:45:48;20.30;58.10
66608;DHT22;53462;39.616;8.824;2023-04-03T09:51:02;19.70;57.90
66608;DHT22;53462;39.616;8.824;2023-04-03T09:53:41;19.80;57.70
66608;DHT22;53462;39.616;8.824;2023-04-03T09:58:44;21.10;53.30
66608;DHT22;53462;39.616;8.824;2023-04-03T10:01:25;21.40;52.90
66608;DHT22;53462;39.616;8.824;2023-04-03T10:04:13;21.20;51.30
66608;DHT22;53462;39.616;8.824;2023-04-03T10:06:43;21.50;50.80
66608;DHT22;53462;39.616;8.824;2023-04-03T10:09:27;21.40;50.40
66608;DHT22;53462;39.616;8.824;2023-04-03T10:14:25;21.10;50.20
66608;DHT22;53462;39.616;8.824;2023-04-03T10:17:11;20.60;51.30
66608;DHT22;53462;39.616;8.824;2023-04-03T10:19:53;20.40;52.40
66608;DHT22;53462;39.616;8.824;2023-04-03T10:22:38;21.00;49.70
66608;DHT22;53462;39.616;8.824;2023-04-03T10:25:14;21.10;48.90
66608;DHT22;53462;39.616;8.824;2023-04-03T10:28:54;20.60;50.10
66608;DHT22;53462;39.616;8.824;2023-04-03T10:34:21;19.30;50.10
66608;DHT22;53462;39.616;8.824;2023-04-03T10:42:27;20.10;45.10
66608;DHT22;53462;39.616;8.824;2023-04-03T10:45:28;20.30;46.90
66608;DHT22;53462;39.616;8.824;2023-04-03T10:54:11;20.20;44.50
66608;DHT22;53462;39.616;8.824;2023-04-03T10:56:44;21.70;43.50
66608;DHT22;53462;39.616;8.824;2023-04-03T10:59:43;21.90;42.40
66608;DHT22;53462;39.616;8.824;2023-04-03T11:02:30;21.30;45.60
66608;DHT22;53462;39.616;8.824;2023-04-03T11:07:57;22.90;44.40
66608;DHT22;53462;39.616;8.824;2023-04-03T11:10:45;22.80;43.80
66608;DHT22;53462;39.616;8.824;2023-04-03T11:15:58;21.50;50.00
66608;DHT22;53462;39.616;8.824;2023-04-03T11:18:31;21.40;51.70
66608;DHT22;53462;39.616;8.824;2023-04-03T11:21:34;21.10;53.30
66608;DHT22;53462;39.616;8.824;2023-04-03T11:24:05;20.30;55.60
66608;DHT22;53462;39.616;8.824;2023-04-03T11:26:40;19.80;57.40
66608;DHT22;53462;39.616;8.824;2023-04-03T11:29:10;20.90;53.30
66608;DHT22;53462;39.616;8.824;2023-04-03T11:34:33;21.90;51.20
66608;DHT22;53462;39.616;8.824;2023-04-03T11:37:00;20.50;54.40
66608;DHT22;53462;39.616;8.824;2023-04-03T11:39:31;19.80;58.30
66608;DHT22;53462;39.616;8.824;2023-04-03T11:42:24;19.50;60.50
66608;DHT22;53462;39.616;8.824;2023-04-03T11:45:23;19.40;62.50
66608;DHT22;53462;39.616;8.824;2023-04-03T11:47:52;20.00;61.00
66608;DHT22;53462;39.616;8.824;2023-04-03T11:50:40;20.90;59.20
66608;DHT22;53462;39.616;8.824;2023-04-03T12:01:16;22.00;45.50
66608;DHT22;53462;39.616;8.824;2023-04-03T12:16:27;19.50;57.40
66608;DHT22;53462;39.616;8.824;2023-04-03T12:19:00;19.40;60.20
66608;DHT22;53462;39.616;8.824;2023-04-03T12:36:30;19.10;62.30
66608;DHT22;53462;39.616;8.824;2023-04-03T12:41:42;19.20;61.90
66608;DHT22;53462;39.616;8.824;2023-04-03T12:44:21;20.10;61.10
66608;DHT22;53462;39.616;8.824;2023-04-03T12:46:52;21.00;57.90
66608;DHT22;53462;39.616;8.824;2023-04-03T12:49:33;21.10;56.40
66608;DHT22;53462;39.616;8.824;2023-04-03T12:52:00;21.30;56.10
66608;DHT22;53462;39.616;8.824;2023-04-03T12:54:37;21.50;52.70
66608;DHT22;53462;39.616;8.824;2023-04-03T12:57:12;21.50;50.10
66608;DHT22;53462;39.616;8.824;2023-04-03T12:59:38;21.10;51.20
66608;DHT22;53462;39.616;8.824;2023-04-03T13:02:20;20.90;53.70
66608;DHT22;53462;39.616;8.824;2023-04-03T13:04:49;20.80;55.70
66608;DHT22;53462;39.616;8.824;2023-04-03T13:07:30;19.80;58.30
66608;DHT22;53462;39.616;8.824;2023-04-03T13:10:15;19.20;61.60
66608;DHT22;53462;39.616;8.824;2023-04-03T13:12:55;18.90;63.00
66608;DHT22;53462;39.616;8.824;2023-04-03T13:15:42;18.60;65.10
66608;DHT22;53462;39.616;8.824;2023-04-03T13:18:22;18.40;67.60
66608;DHT22;53462;39.616;8.824;2023-04-03T13:20:49;18.30;69.10
66608;DHT22;53462;39.616;8.824;2023-04-03T13:36:34;18.10;71.30
66608;DHT22;53462;39.616;8.824;2023-04-03T13:41:38;17.60;76.90
66608;DHT22;53462;39.616;8.824;2023-04-03T13:46:59;16.90;71.20
66608;DHT22;53462;39.616;8.824;2023-04-03T13:49:38;16.80;70.90
66608;DHT22;53462;39.616;8.824;2023-04-03T13:52:24;16.90;72.10
66608;DHT22;53462;39.616;8.824;2023-04-03T13:54:55;17.10;71.30
66608;DHT22;53462;39.616;8.824;2023-04-03T13:57:22;17.00;70.60
66608;DHT22;53462;39.616;8.824;2023-04-03T13:59:49;16.80;71.20
66608;DHT22;53462;39.616;8.824;2023-04-03T14:02:32;16.70;70.90
66608;DHT22;53462;39.616;8.824;2023-04-03T14:05:00;16.60;70.80
66608;DHT22;53462;39.616;8.824;2023-04-03T14:07:28;16.60;69.70
66608;DHT22;53462;39.616;8.824;2023-04-03T14:09:55;16.60;70.10
66608;DHT22;53462;39.616;8.824;2023-04-03T14:12:33;16.40;70.40
66608;DHT22;53462;39.616;8.824;2023-04-03T14:15:04;16.20;71.90
66608;DHT22;53462;39.616;8.824;2023-04-03T14:17:31;16.30;72.10
66608;DHT22;53462;39.616;8.824;2023-04-03T14:19:57;16.10;72.50
66608;DHT22;53462;39.616;8.824;2023-04-03T14:22:27;16.10;73.70
66608;DHT22;53462;39.616;8.824;2023-04-03T14:24:54;16.20;74.40
66608;DHT22;53462;39.616;8.824;2023-04-03T14:27:24;16.30;75.10
66608;DHT22;53462;39.616;8.824;2023-04-03T14:29:52;16.30;74.90
66608;DHT22;53462;39.616;8.824;2023-04-03T14:32:19;16.30;75.30
66608;DHT22;53462;39.616;8.824;2023-04-03T14:34:46;16.30;75.70
66608;DHT22;53462;39.616;8.824;2023-04-03T14:37:15;16.20;75.60
66608;DHT22;53462;39.616;8.824;2023-04-03T14:39:42;16.10;76.50
66608;DHT22;53462;39.616;8.824;2023-04-03T14:42:22;16.10;74.10
66608;DHT22;53462;39.616;8.824;2023-04-03T14:44:49;16.20;74.50
66608;DHT22;53462;39.616;8.824;2023-04-03T14:47:19;16.10;72.20
66608;DHT22;53462;39.616;8.824;2023-04-03T14:49:46;16.00;72.60
66608;DHT22;53462;39.616;8.824;2023-04-03T14:52:27;16.10;70.90
66608;DHT22;53462;39.616;8.824;2023-04-03T14:54:55;16.00;70.00
66608;DHT22;53462;39.616;8.824;2023-04-03T14:57:24;16.00;69.90
66608;DHT22;53462;39.616;8.824;2023-04-03T14:59:51;15.90;67.80
66608;DHT22;53462;39.616;8.824;2023-04-03T15:02:31;16.10;68.00
66608;DHT22;53462;39.616;8.824;2023-04-03T15:04:58;16.10;67.90
66608;DHT22;53462;39.616;8.824;2023-04-03T15:07:27;16.10;68.60
66608;DHT22;53462;39.616;8.824;2023-04-03T15:09:54;16.10;67.70
66608;DHT22;53462;39.616;8.824;2023-04-03T15:12:23;16.00;68.00
66608;DHT22;53462;39.616;8.824;2023-04-03T15:14:49;15.90;68.20
66608;DHT22;53462;39.616;8.824;2023-04-03T15:17:17;16.00;69.10
66608;DHT22;53462;39.616;8.824;2023-04-03T15:19:46;16.00;70.00
66608;DHT22;53462;39.616;8.824;2023-04-03T15:22:19;16.00;71.60
66608;DHT22;53462;39.616;8.824;2023-04-03T15:24:45;16.00;73.10
66608;DHT22;53462;39.616;8.824;2023-04-03T15:27:13;16.10;73.80
66608;DHT22;53462;39.616;8.824;2023-04-03T15:29:41;16.10;74.30
66608;DHT22;53462;39.616;8.824;2023-04-03T15:32:08;16.10;74.70
66608;DHT22;53462;39.616;8.824;2023-04-03T15:34:34;16.10;75.50
66608;DHT22;53462;39.616;8.824;2023-04-03T15:37:04;16.20;76.10
66608;DHT22;53462;39.616;8.824;2023-04-03T15:39:30;16.30;76.10
66608;DHT22;53462;39.616;8.824;2023-04-03T15:41:58;16.30;75.60
66608;DHT22;53462;39.616;8.824;2023-04-03T15:44:33;16.20;76.00
66608;DHT22;53462;39.616;8.824;2023-04-03T15:47:00;16.30;76.50
66608;DHT22;53462;39.616;8.824;2023-04-03T15:49:26;16.30;76.10
66608;DHT22;53462;39.616;8.824;2023-04-03T15:51:52;16.30;76.50
66608;DHT22;53462;39.616;8.824;2023-04-03T15:54:18;16.30;76.90
66608;DHT22;53462;39.616;8.824;2023-04-03T15:56:44;16.30;77.20
66608;DHT22;53462;39.616;8.824;2023-04-03T15:59:10;16.40;77.20
66608;DHT22;53462;39.616;8.824;2023-04-03T16:01:37;16.30;77.50
66608;DHT22;53462;39.616;8.824;2023-04-03T16:04:05;16.30;77.60
66608;DHT22;53462;39.616;8.824;2023-04-03T16:06:32;16.40;77.40
66608;DHT22;53462;39.616;8.824;2023-04-03T16:08:59;16.40;76.50
66608;DHT22;53462;39.616;8.824;2023-04-03T16:11:26;16.30;75.70
66608;DHT22;53462;39.616;8.824;2023-04-03T16:13:53;16.30;74.50
66608;DHT22;53462;39.616;8.824;2023-04-03T16:16:20;16.20;69.40
66608;DHT22;53462;39.616;8.824;2023-04-03T16:18:46;16.00;67.10
66608;DHT22;53462;39.616;8.824;2023-04-03T16:21:13;16.10;66.20
66608;DHT22;53462;39.616;8.824;2023-04-03T16:23:40;16.10;65.40
66608;DHT22;53462;39.616;8.824;2023-04-03T16:26:07;15.90;62.70
66608;DHT22;53462;39.616;8.824;2023-04-03T16:28:33;15.80;61.60
66608;DHT22;53462;39.616;8.824;2023-04-03T16:31:00;15.70;61.30
66608;DHT22;53462;39.616;8.824;2023-04-03T16:33:27;15.80;60.80
66608;DHT22;53462;39.616;8.824;2023-04-03T16:35:53;15.80;60.20
66608;DHT22;53462;39.616;8.824;2023-04-03T16:38:19;15.80;58.70
66608;DHT22;53462;39.616;8.824;2023-04-03T16:40:48;15.70;58.80
66608;DHT22;53462;39.616;8.824;2023-04-03T16:43:15;15.90;58.10
66608;DHT22;53462;39.616;8.824;2023-04-03T16:45:41;16.00;59.10
66608;DHT22;53462;39.616;8.824;2023-04-03T16:48:07;16.10;58.30
66608;DHT22;53462;39.616;8.824;2023-04-03T16:50:33;16.20;59.20
66608;DHT22;53462;39.616;8.824;2023-04-03T16:53:00;16.40;59.10
66608;DHT22;53462;39.616;8.824;2023-04-03T16:55:28;16.40;60.20
66608;DHT22;53462;39.616;8.824;2023-04-03T16:57:54;16.30;60.50
66608;DHT22;53462;39.616;8.824;2023-04-03T17:00:21;16.20;61.60
66608;DHT22;53462;39.616;8.824;2023-04-03T17:02:47;16.00;63.00
66608;DHT22;53462;39.616;8.824;2023-04-03T17:05:13;16.10;64.30
66608;DHT22;53462;39.616;8.824;2023-04-03T17:07:38;15.90;65.60
66608;DHT22;53462;39.616;8.824;2023-04-03T17:10:05;15.80;66.30
66608;DHT22;53462;39.616;8.824;2023-04-03T17:12:31;15.60;67.70
66608;DHT22;53462;39.616;8.824;2023-04-03T17:14:57;15.70;68.60
66608;DHT22;53462;39.616;8.824;2023-04-03T17:17:24;15.50;69.40
66608;DHT22;53462;39.616;8.824;2023-04-03T17:19:51;15.40;71.70
66608;DHT22;53462;39.616;8.824;2023-04-03T17:22:19;15.40;74.20
66608;DHT22;53462;39.616;8.824;2023-04-03T17:24:45;15.40;75.50
66608;DHT22;53462;39.616;8.824;2023-04-03T17:27:11;15.30;77.10
66608;DHT22;53462;39.616;8.824;2023-04-03T17:29:37;15.10;78.20
66608;DHT22;53462;39.616;8.824;2023-04-03T17:32:03;15.00;79.60
66608;DHT22;53462;39.616;8.824;2023-04-03T17:34:29;14.90;81.00
66608;DHT22;53462;39.616;8.824;2023-04-03T17:36:55;14.90;82.10
66608;DHT22;53462;39.616;8.824;2023-04-03T17:39:21;14.70;83.30
66608;DHT22;53462;39.616;8.824;2023-04-03T17:41:47;14.60;84.60
66608;DHT22;53462;39.616;8.824;2023-04-03T17:44:14;14.50;86.40
66608;DHT22;53462;39.616;8.824;2023-04-03T17:46:40;14.30;87.60
66608;DHT22;53462;39.616;8.824;2023-04-03T17:49:06;14.30;89.10